Latest Weather Observations for Lochington

IDQ60801

Issued at 1:32 pm EST Tuesday 30 June 2015 (issued every 30 minutes, with the page automatically refreshed every 10 minutes)

About weather observations | Map of weather stations | Latest weather observations for QLD | Other Formats
Station Details ID: 035139 Name: LOCHINGTON Lat: -23.94 Lon: 147.53 Height: 267.19 m
Data from the previous 72 hours. | See also: Recent months at Lochington
Date/Time
EST
Temp
°C
App
Temp
°C
Dew
Point
Rel
Hum
%
Delta-T
°C
Wind Press
QNH
hPa
Press
MSL
hPa
Rain
since 9 am
mm
Dir
 
Spd
km/h
Gust
km/h
Spd
kts
Gust
kts
30/01:30pm 20.4 19.3 10.5 53 5.4 E 7 11 4 6 1023.7 1023.4 0.0
30/01:00pm 20.3 18.7 10.1 52 5.5 E 9 15 5 8 1024.1 1023.7 0.0
30/12:30pm 20.2 18.9 11.1 56 5.0 NE 9 15 5 8 1024.5 1024.1 0.0
30/12:00pm 19.7 18.3 10.9 57 4.8 NE 9 15 5 8 1025.1 1024.7 0.0
30/11:30am 19.0 17.5 12.0 64 3.9 ENE 11 15 6 8 1025.5 1025.1 0.0
30/11:00am 18.9 18.0 12.6 67 3.6 NE 9 17 5 9 1025.8 1025.4 0.0
30/10:30am 18.7 18.1 13.6 72 2.9 E 9 15 5 8 1026.0 1025.6 0.0
30/10:00am 18.0 18.0 14.1 78 2.2 E 7 13 4 7 1026.2 1025.9 0.0
30/09:30am 16.9 16.6 13.2 79 2.1 E 7 11 4 6 1026.4 1026.1 0.0
30/09:00am 16.7 16.8 14.0 84 1.5 E 6 7 3 4 1026.5 1026.2 1.2
30/08:30am 15.5 16.7 13.9 90 0.9 CALM 0 2 0 1 1026.4 1026.1 1.2
30/08:00am 15.0 15.9 13.9 93 0.6 W 2 4 1 2 1026.1 1025.8 1.2
30/07:30am 14.5 15.2 13.5 94 0.6 W 2 2 1 1 1025.9 1025.5 1.2
30/07:00am 14.4 15.4 13.3 93 0.6 CALM 0 0 0 0 1025.6 1025.2 1.2
30/06:30am 14.6 15.6 13.3 92 0.7 CALM 0 0 0 0 1025.2 1024.8 1.2
30/06:00am 14.8 15.8 13.3 91 0.8 CALM 0 2 0 1 1024.9 1024.5 1.2
30/05:30am 14.7 15.0 13.4 92 0.7 ESE 4 4 2 2 1024.6 1024.2 1.2
30/05:00am 14.8 16.0 13.8 94 0.6 CALM 0 0 0 0 1024.4 1024.0 1.2
30/04:30am 14.8 16.0 13.8 94 0.6 CALM 0 0 0 0 1024.5 1024.1 1.2
30/04:00am 14.9 16.0 13.4 91 0.8 CALM 0 0 0 0 1024.4 1024.0 1.2
30/03:30am 15.3 16.6 14.0 92 0.7 CALM 0 0 0 0 1024.6 1024.2 1.2
30/03:00am 15.6 16.3 13.4 87 1.2 ENE 2 4 1 2 1024.7 1024.3 1.2
30/02:30am 15.6 16.8 13.8 89 1.0 CALM 0 4 0 2 1024.7 1024.3 1.2
30/02:00am 16.0 16.1 14.0 88 1.1 ENE 6 7 3 4 1024.7 1024.3 1.2
30/01:30am 15.7 17.1 14.4 92 0.7 CALM 0 0 0 0 1024.8 1024.4 1.2
30/01:00am 15.9 16.8 14.1 89 1.0 ESE 2 4 1 2 1024.9 1024.5 1.2
30/12:30am 16.1 16.3 14.1 88 1.1 ENE 6 7 3 4 1024.9 1024.5 1.2
30/12:00am 16.3 16.7 14.8 91 0.9 ENE 6 7 3 4 1024.9 1024.5 1.2
 
Date/Time
EST
Temp
°C
App
Temp
°C
Dew
Point
Rel
Hum
%
Delta-T
°C
Wind Press
QNH
hPa
Press
MSL
hPa
Rain
since 9 am
mm
Dir
 
Spd
km/h
Gust
km/h
Spd
kts
Gust
kts
29/11:30pm 16.4 16.9 14.9 91 0.9 NE 6 9 3 5 1025.1 1024.7 1.2
29/11:00pm 16.2 16.7 15.1 93 0.6 NNE 6 6 3 3 1025.5 1025.1 1.2
29/10:30pm 16.6 17.1 15.1 91 0.9 ENE 6 7 3 4 1025.5 1025.1 1.2
29/10:00pm 16.4 17.4 15.4 94 0.6 E 4 7 2 4 1025.5 1025.1 1.2
29/09:30pm 16.4 17.0 15.4 94 0.6 ESE 6 7 3 4 1025.4 1025.0 1.2
29/09:00pm 16.6 17.3 15.6 94 0.6 E 6 7 3 4 1025.7 1025.3 1.2
29/08:30pm 16.7 16.5 15.7 94 0.6 ENE 11 15 6 8 1025.8 1025.4 1.2
29/08:00pm 16.9 16.4 15.8 93 0.7 NE 13 19 7 10 1025.9 1025.5 0.4
29/07:30pm 17.8 16.5 14.9 83 1.7 NE 15 20 8 11 1025.7 1025.3 0.0
29/07:00pm 19.6 18.3 13.8 69 3.4 NE 13 19 7 10 1025.2 1024.8 0.0
29/06:30pm 19.6 19.2 13.1 66 3.7 NE 7 11 4 6 1024.7 1024.3 0.0
29/06:00pm 20.6 20.1 12.6 60 4.6 NE 7 9 4 5 1024.2 1023.8 0.0
29/05:30pm 20.9 20.3 12.3 58 4.9 E 7 11 4 6 1023.8 1023.5 0.0
29/05:00pm 21.4 20.4 12.3 56 5.2 E 9 13 5 7 1023.6 1023.3 0.0
29/04:30pm 21.6 20.2 12.2 55 5.4 ENE 11 17 6 9 1023.5 1023.2 0.0
29/04:00pm 21.9 19.7 12.2 54 5.5 ENE 15 22 8 12 1023.4 1023.1 0.0
29/03:30pm 22.2 19.7 12.2 53 5.7 ENE 17 24 9 13 1023.3 1023.0 0.0
29/03:00pm 22.8 20.5 11.8 50 6.2 ENE 15 24 8 13 1023.3 1023.0 0.0
29/02:30pm 22.5 20.6 11.9 51 6.0 E 13 22 7 12 1023.4 1023.1 0.0
29/02:00pm 23.5 21.4 12.5 50 6.3 ENE 15 28 8 15 1023.5 1023.2 0.0
29/01:30pm 22.9 20.2 11.6 49 6.4 E 17 26 9 14 1023.9 1023.6 0.0
29/01:00pm 22.5 20.2 11.6 50 6.2 E 15 20 8 11 1024.6 1024.2 0.0
29/12:30pm 22.0 18.7 11.7 52 5.8 ENE 20 30 11 16 1025.0 1024.6 0.0
29/12:00pm 22.4 19.0 11.2 49 6.3 E 20 32 11 17 1025.4 1025.0 0.0
29/11:30am 23.2 19.6 10.6 45 7.0 E 20 33 11 18 1025.7 1025.3 0.0
29/11:00am 22.4 19.2 9.9 45 6.8 ENE 17 28 9 15 1026.3 1026.0 0.0
29/10:30am 20.9 18.0 11.0 53 5.5 E 17 32 9 17 1026.7 1026.4 0.0
29/10:00am 20.4 17.7 11.6 57 4.9 ESE 17 24 9 13 1027.2 1026.9 0.0
29/09:30am 18.7 16.2 12.2 66 3.7 ESE 17 26 9 14 1027.6 1027.3 0.0
29/09:00am 16.9 16.1 13.0 78 2.2 ESE 9 13 5 7 1027.7 1027.4 0.0
29/08:30am 15.6 15.5 13.3 86 1.3 ESE 6 7 3 4 1027.8 1027.5 0.0
29/08:00am 14.6 14.8 13.0 90 0.9 ESE 4 7 2 4 1027.7 1027.4 0.0
29/07:30am 12.7 12.5 11.9 95 0.4 ESE 4 6 2 3 1027.2 1026.9 0.0
29/07:00am 10.9 10.9 9.8 93 0.6 CALM 0 0 0 0 1027.3 1027.0 0.0
29/06:30am 10.2 9.7 9.3 94 0.5 NW 2 4 1 2 1027.0 1026.7 0.0
29/06:00am 10.3 9.3 8.7 90 0.8 W 4 4 2 2 1026.7 1026.4 0.0
29/05:30am 12.4 11.8 10.5 88 1.0 SE 4 6 2 3 1026.1 1025.8 0.0
29/05:00am 12.5 11.8 11.4 93 0.6 ESE 6 7 3 4 1025.9 1025.5 0.0
29/04:30am 12.4 12.7 10.8 90 0.8 CALM 0 0 0 0 1025.9 1025.5 0.0
29/04:00am 11.7 11.6 9.6 87 1.1 CALM 0 0 0 0 1025.9 1025.5 0.0
29/03:30am 12.2 12.3 10.1 87 1.1 CALM 0 0 0 0 1026.1 1025.8 0.0
29/03:00am 12.5 12.5 9.9 84 1.3 CALM 0 0 0 0 1025.9 1025.5 0.0
29/02:30am 13.2 12.9 10.0 81 1.7 E 2 4 1 2 1026.1 1025.8 0.0
29/02:00am 12.8 12.1 10.0 83 1.5 NNE 4 6 2 3 1026.0 1025.6 0.0
29/01:30am 13.8 13.0 11.0 83 1.5 NE 6 9 3 5 1025.7 1025.3 0.0
29/01:00am 13.4 12.9 10.8 84 1.4 ESE 4 4 2 2 1026.0 1025.6 0.0
29/12:30am 13.6 13.8 10.6 82 1.6 CALM 0 4 0 2 1026.0 1025.6 0.0
29/12:00am 14.1 13.5 10.3 78 2.0 ENE 4 7 2 4 1026.3 1026.0 0.0
 
Date/Time
EST
Temp
°C
App
Temp
°C
Dew
Point
Rel
Hum
%
Delta-T
°C
Wind Press
QNH
hPa
Press
MSL
hPa
Rain
since 9 am
mm
Dir
 
Spd
km/h
Gust
km/h
Spd
kts
Gust
kts
28/11:30pm 15.4 14.8 10.4 72 2.7 E 4 6 2 3 1026.3 1026.0 0.0
28/11:00pm 16.4 15.9 10.9 70 3.0 ENE 4 6 2 3 1026.5 1026.2 0.0
28/10:30pm 16.4 15.6 10.9 70 3.0 E 6 6 3 3 1026.7 1026.4 0.0
28/10:00pm 16.7 15.7 11.0 69 3.1 E 7 7 4 4 1026.6 1026.3 0.0
28/09:30pm 17.5 16.2 11.3 67 3.4 ENE 9 13 5 7 1026.6 1026.3 0.0
28/09:00pm 17.9 17.1 11.7 67 3.4 E 7 9 4 5 1026.6 1026.3 0.0
28/08:30pm 17.9 17.0 11.2 65 3.7 ESE 7 11 4 6 1026.5 1026.2 0.0
28/08:00pm 18.2 17.3 11.5 65 3.7 ESE 7 11 4 6 1026.4 1026.1 0.0
28/07:30pm 18.0 17.2 11.1 64 3.8 ESE 6 6 3 3 1026.2 1025.9 0.0
28/07:00pm 18.8 18.0 11.1 61 4.2 SE 6 7 3 4 1025.8 1025.4 0.0
28/06:30pm 19.1 18.6 10.6 58 4.6 SE 4 6 2 3 1025.4 1025.0 0.0
28/06:00pm 19.9 18.8 10.6 55 5.1 E 7 7 4 4 1025.1 1024.7 0.0
28/05:30pm 21.4 19.6 10.9 51 5.8 E 11 17 6 9 1024.7 1024.3 0.0
28/05:00pm 22.3 19.6 10.5 47 6.5 ESE 15 22 8 12 1024.6 1024.2 0.0
28/04:30pm 23.7 21.9 10.7 44 7.3 E 11 24 6 13 1024.5 1024.1 0.0
28/04:00pm 24.0 20.6 10.7 43 7.4 E 19 28 10 15 1024.6 1024.2 0.0
28/03:30pm 23.7 20.7 10.7 44 7.3 E 17 26 9 14 1024.5 1024.1 0.0
28/03:00pm 22.8 19.8 10.6 46 6.8 E 17 26 9 14 1024.8 1024.4 0.0
28/02:30pm 23.9 20.4 10.9 44 7.3 ESE 20 30 11 16 1024.8 1024.4 0.0
28/02:00pm 24.7 22.1 12.0 45 7.3 E 17 24 9 13 1024.8 1024.4 0.0
28/01:30pm 23.6 21.2 11.3 46 7.0 E 15 20 8 11 1025.3 1024.9 0.0
28/01:00pm 23.3 20.3 10.7 45 7.0 E 17 26 9 14 1025.4 1025.0 0.0
28/12:30pm 22.2 20.1 11.3 50 6.1 ESE 13 20 7 11 1025.9 1025.5 0.0
28/12:00pm 22.6 19.8 11.4 49 6.3 E 17 28 9 15 1026.4 1026.1 0.0
28/11:30am 21.8 18.9 10.9 50 6.1 ESE 17 26 9 14 1026.7 1026.4 0.0
28/11:00am 21.9 19.0 11.0 50 6.1 E 17 26 9 14 1027.1 1026.8 0.0
28/10:30am 21.2 18.4 11.5 54 5.5 ESE 17 32 9 17 1027.5 1027.2 0.0
28/10:00am 20.4 17.2 11.9 58 4.8 ESE 20 32 11 17 1027.8 1027.5 0.0
28/09:30am 19.6 16.7 12.4 63 4.1 ESE 19 28 10 15 1028.1 1027.7 0.0
28/09:00am 18.6 17.0 12.8 69 3.3 ESE 13 22 7 12 1027.8 1027.5 0.0
28/08:30am 16.8 15.9 12.5 76 2.4 ESE 9 17 5 9 1027.6 1027.3 0.0
28/08:00am 15.1 14.5 12.4 84 1.5 ESE 7 9 4 5 1027.6 1027.3 0.0
28/07:30am 12.4 12.5 11.5 94 0.5 E 2 4 1 2 1027.4 1027.1 0.0
28/07:00am 11.0 11.0 9.8 92 0.6 CALM 0 2 0 1 1027.2 1026.9 0.0
28/06:30am 11.6 10.8 9.5 87 1.1 SE 4 6 2 3 1026.9 1026.6 0.0
28/06:00am 12.4 11.8 10.3 87 1.1 E 4 6 2 3 1026.8 1026.5 0.0
28/05:30am 13.0 12.0 10.9 87 1.1 ESE 7 11 4 6 1026.7 1026.4 0.0
28/05:00am 12.8 11.4 10.9 88 1.0 ESE 9 13 5 7 1026.6 1026.3 0.0
28/04:30am 12.0 10.8 10.4 90 0.8 ESE 7 9 4 5 1026.6 1026.3 0.0
28/04:00am 11.3 10.5 9.7 90 0.8 SE 4 6 2 3 1026.6 1026.3 0.0
28/03:30am 11.7 11.7 9.9 89 0.9 CALM 0 4 0 2 1026.6 1026.3 0.0
28/03:00am 11.3 10.6 9.9 91 0.7 NW 4 4 2 2 1026.5 1026.2 0.0
28/02:30am 11.1 10.2 9.2 88 1.0 W 4 6 2 3 1026.5 1026.2 0.0
28/02:00am 11.9 11.8 9.3 84 1.3 CALM 0 2 0 1 1026.6 1026.3 0.0
28/01:30am 12.7 12.0 10.1 84 1.4 WNW 4 6 2 3 1026.9 1026.6 0.0
28/01:00am 12.6 11.9 10.0 84 1.3 WNW 4 6 2 3 1027.0 1026.7 0.0
28/12:30am 13.1 13.1 9.7 80 1.8 CALM 0 2 0 1 1026.9 1026.6 0.0
28/12:00am 13.9 13.9 9.9 77 2.1 CALM 0 0 0 0 1026.9 1026.6 0.0
 
Date/Time
EST
Temp
°C
App
Temp
°C
Dew
Point
Rel
Hum
%
Delta-T
°C
Wind Press
QNH
hPa
Press
MSL
hPa
Rain
since 9 am
mm
Dir
 
Spd
km/h
Gust
km/h
Spd
kts
Gust
kts
27/11:30pm 15.1 14.7 9.9 71 2.7 SE 2 4 1 2 1027.1 1026.8 0.0
27/11:00pm 16.4 15.8 10.5 68 3.2 SSE 4 6 2 3 1027.1 1026.8 0.0
27/10:30pm 16.1 15.6 10.6 70 3.0 SE 4 6 2 3 1027.1 1026.8 0.0
27/10:00pm 16.2 15.2 10.3 68 3.1 SSE 6 9 3 5 1027.1 1026.8 0.0
27/09:30pm 15.8 15.1 10.1 69 3.0 SE 4 4 2 2 1027.2 1026.9 0.0
27/09:00pm 15.5 14.8 10.1 70 2.8 SSE 4 4 2 2 1027.2 1026.9 0.0
27/08:30pm 16.0 15.3 10.1 68 3.1 SE 4 4 2 2 1027.0 1026.7 0.0
27/08:00pm 16.4 15.5 9.3 63 3.7 SE 4 4 2 2 1026.8 1026.5 0.0
27/07:30pm 17.4 16.0 9.6 60 4.1 SSE 7 9 4 5 1026.6 1026.3 0.0
27/07:00pm 18.0 16.8 9.6 58 4.5 ESE 6 9 3 5 1026.4 1026.1 0.0
27/06:30pm 19.2 17.5 9.9 55 5.0 ESE 9 15 5 8 1026.0 1025.6 0.0
27/06:00pm 19.8 18.9 9.1 50 5.7 ESE 4 6 2 3 1025.6 1025.2 0.0
27/05:30pm 20.9 19.0 9.2 47 6.3 ESE 9 13 5 7 1025.2 1024.8 0.0
27/05:00pm 21.9 19.6 9.1 44 6.9 ESE 11 17 6 9 1024.9 1024.5 0.0
27/04:30pm 23.0 20.4 9.4 42 7.4 ESE 13 24 7 13 1024.6 1024.2 0.0
27/04:00pm 23.5 20.4 8.8 39 7.9 E 15 26 8 14 1024.3 1023.9 0.0
27/03:30pm 24.1 22.0 9.7 40 8.0 E 11 22 6 12 1024.3 1023.9 0.0
27/03:00pm 23.4 20.0 9.0 40 7.8 SE 17 22 9 12 1024.3 1023.9 0.0
27/02:30pm 22.2 19.1 8.7 42 7.3 ESE 15 26 8 14 1024.4 1024.0 0.0
27/02:00pm 23.1 19.5 8.4 39 7.9 E 17 30 9 16 1024.5 1024.1 0.0

Other Formats:

Comma delimited format used in spreadsheet applications
http://www.bom.gov.au/fwo/IDQ60801/IDQ60801.94399.axf

JavaScript Object Notation format (JSON) in row-major order
http://www.bom.gov.au/fwo/IDQ60801/IDQ60801.94399.json